createdAt,value
2022-10-31T06:00:05.597Z,9.70
2022-10-31T06:02:35.347Z,10.10
2022-10-31T06:05:02.294Z,9.30
2022-10-31T06:07:32.742Z,9.50
2022-10-31T06:09:59.277Z,9.40
2022-10-31T06:12:25.844Z,9.40
2022-10-31T06:14:52.385Z,9.60
2022-10-31T06:17:18.909Z,9.60
2022-10-31T06:19:45.510Z,9.70
2022-10-31T06:22:14.209Z,9.40
2022-10-31T06:24:41.131Z,9.60
2022-10-31T06:27:30.737Z,9.80
2022-10-31T06:29:57.752Z,9.50
2022-10-31T06:32:24.717Z,9.80
2022-10-31T06:34:51.584Z,11.30
2022-10-31T06:37:18.311Z,9.70
2022-10-31T06:39:44.961Z,9.30
2022-10-31T06:42:11.622Z,10.00
2022-10-31T06:44:38.293Z,9.90
2022-10-31T06:47:06.097Z,10.00
2022-10-31T06:49:32.758Z,10.00
2022-10-31T07:18:57.041Z,10.50
2022-10-31T07:21:23.782Z,12.00
2022-10-31T07:33:38.513Z,10.60
2022-10-31T07:36:05.220Z,10.40
2022-10-31T08:10:24.714Z,10.90
2022-10-31T08:12:58.669Z,10.70
2022-10-31T08:20:19.707Z,10.90
2022-10-31T08:22:59.778Z,11.10
2022-10-31T08:25:27.048Z,11.30
2022-10-31T08:27:54.501Z,11.20
2022-10-31T08:30:25.978Z,11.00
2022-10-31T08:33:18.907Z,11.20
2022-10-31T08:35:45.597Z,11.30
2022-10-31T08:38:13.039Z,12.60
2022-10-31T08:40:39.696Z,12.40
2022-10-31T08:43:13.610Z,11.60
2022-10-31T08:45:40.338Z,11.40
2022-10-31T08:48:08.286Z,11.00
2022-10-31T08:50:35.705Z,10.60
2022-10-31T08:53:05.914Z,11.00
2022-10-31T08:55:36.578Z,12.70
2022-10-31T08:58:04.224Z,10.90
2022-10-31T09:00:31.110Z,11.70
2022-10-31T09:02:58.776Z,11.80
2022-10-31T09:05:25.561Z,13.20
2022-10-31T09:07:52.633Z,11.80
2022-10-31T09:10:19.264Z,13.50
2022-10-31T09:12:45.912Z,13.40
2022-10-31T09:15:12.677Z,13.30
2022-10-31T09:17:39.277Z,13.30
2022-10-31T09:20:06.095Z,12.40
2022-10-31T09:22:32.699Z,11.80
2022-10-31T09:24:59.289Z,11.20
2022-10-31T09:27:25.891Z,13.60
2022-10-31T09:29:52.485Z,12.40
2022-10-31T09:32:19.107Z,11.80
2022-10-31T09:34:45.683Z,13.80
2022-10-31T09:43:20.137Z,12.70
2022-10-31T09:46:00.674Z,12.80
2022-10-31T09:48:46.106Z,12.80
2022-10-31T09:51:24.536Z,12.80
2022-10-31T09:53:54.262Z,13.10
2022-10-31T09:56:21.821Z,12.90
2022-10-31T09:58:50.701Z,13.70
2022-10-31T10:01:24.537Z,14.20
2022-10-31T10:03:54.159Z,12.30
2022-10-31T10:06:24.084Z,14.50
2022-10-31T10:08:50.760Z,14.60
2022-10-31T10:11:32.900Z,13.00
2022-10-31T10:14:02.564Z,13.10
2022-10-31T10:16:34.207Z,13.10
2022-10-31T10:19:13.084Z,13.60
2022-10-31T10:21:45.969Z,13.00
2022-10-31T10:24:12.531Z,13.20
2022-10-31T10:26:41.292Z,13.40
2022-10-31T10:29:17.777Z,13.60
2022-10-31T10:31:46.874Z,13.80
2022-10-31T10:34:31.820Z,13.70
2022-10-31T10:37:01.605Z,13.50
2022-10-31T10:39:34.007Z,13.40
2022-10-31T10:42:19.359Z,13.10
2022-10-31T10:45:06.236Z,13.10
2022-10-31T10:47:42.527Z,13.20
2022-10-31T10:50:29.393Z,13.40
2022-10-31T10:53:33.466Z,13.30
2022-10-31T10:56:03.099Z,13.70
2022-10-31T10:58:29.713Z,14.00
2022-10-31T11:00:56.631Z,13.20
2022-10-31T11:03:23.284Z,14.20
2022-10-31T11:05:54.448Z,13.70
2022-10-31T11:08:34.294Z,13.80
2022-10-31T11:11:19.653Z,13.90
2022-10-31T11:13:48.130Z,14.00
2022-10-31T11:16:16.519Z,14.00
2022-10-31T11:18:45.354Z,13.50
2022-10-31T11:21:22.824Z,13.70
2022-10-31T11:23:49.409Z,13.60
2022-10-31T11:26:22.314Z,13.70
2022-10-31T11:28:59.602Z,13.40
2022-10-31T11:31:27.531Z,13.60
2022-10-31T11:33:58.790Z,13.20
2022-10-31T11:36:27.891Z,13.80
2022-10-31T11:38:54.913Z,13.50
2022-10-31T11:41:26.703Z,13.40
2022-10-31T11:43:56.192Z,14.10
2022-10-31T11:46:27.139Z,15.00
2022-10-31T11:48:54.960Z,14.80
2022-10-31T11:51:22.830Z,14.60
2022-10-31T11:53:53.587Z,14.00
2022-10-31T11:56:21.911Z,14.20
2022-10-31T11:58:58.631Z,14.30
2022-10-31T12:01:26.907Z,14.40
2022-10-31T12:04:13.455Z,13.80
2022-10-31T12:06:41.068Z,14.40
2022-10-31T12:09:31.198Z,14.20
2022-10-31T12:12:13.117Z,14.80
2022-10-31T12:15:09.377Z,15.00
2022-10-31T12:17:35.915Z,15.20
2022-10-31T12:20:08.846Z,15.30
2022-10-31T12:22:54.197Z,15.10
2022-10-31T12:25:39.562Z,15.30
2022-10-31T12:28:14.774Z,15.20
2022-10-31T12:30:44.370Z,15.40
2022-10-31T12:33:33.410Z,15.50
2022-10-31T12:36:08.541Z,15.60
2022-10-31T12:38:37.889Z,15.90
2022-10-31T12:41:22.614Z,16.10
2022-10-31T12:44:03.225Z,16.30
2022-10-31T12:46:38.892Z,16.40
2022-10-31T12:49:21.060Z,16.60
2022-10-31T12:55:05.912Z,16.40
2022-10-31T12:57:35.006Z,16.70
2022-10-31T13:00:06.435Z,16.40
2022-10-31T13:02:36.187Z,16.50
2022-10-31T13:05:05.792Z,16.50
2022-10-31T13:07:38.569Z,16.70
2022-10-31T13:10:27.940Z,16.50
2022-10-31T13:16:19.479Z,16.60
2022-10-31T13:19:12.518Z,17.10
2022-10-31T13:21:48.787Z,16.60
2022-10-31T13:24:18.932Z,16.70
2022-10-31T13:26:48.673Z,16.60
2022-10-31T13:29:31.754Z,16.70
2022-10-31T13:32:00.744Z,16.70
2022-10-31T13:34:56.219Z,16.60
2022-10-31T13:37:47.155Z,16.40
2022-10-31T13:40:21.772Z,16.40
2022-10-31T13:42:48.358Z,17.30
2022-10-31T13:45:19.092Z,16.80
2022-10-31T13:47:56.421Z,16.40
2022-10-31T13:50:28.087Z,16.50
2022-10-31T13:53:10.157Z,16.20
2022-10-31T13:55:38.945Z,16.60
2022-10-31T13:58:25.850Z,16.10
2022-10-31T14:01:04.299Z,16.60
2022-10-31T14:04:02.210Z,15.90
2022-10-31T14:06:18.375Z,15.80
2022-10-31T14:08:50.791Z,15.90
2022-10-31T14:11:26.018Z,15.90
2022-10-31T14:13:52.756Z,15.90
2022-10-31T14:16:24.962Z,16.60
2022-10-31T14:18:57.796Z,15.70
2022-10-31T14:21:24.638Z,15.60
2022-10-31T14:23:55.313Z,15.50
2022-10-31T14:26:29.384Z,15.50
2022-10-31T14:28:57.735Z,15.60
2022-10-31T14:31:38.321Z,15.50
2022-10-31T14:34:23.209Z,15.50
2022-10-31T14:37:13.513Z,15.40
2022-10-31T14:39:42.967Z,15.40
2022-10-31T14:42:12.606Z,15.40
2022-10-31T14:44:47.397Z,15.40
2022-10-31T14:47:14.042Z,15.70
2022-10-31T14:49:43.733Z,15.70
2022-10-31T14:52:13.809Z,15.30
2022-10-31T14:54:41.991Z,14.90
2022-10-31T14:57:15.071Z,15.10
2022-10-31T14:59:44.993Z,16.00
2022-10-31T15:02:20.737Z,16.20
2022-10-31T15:04:48.328Z,15.10
2022-10-31T15:07:24.863Z,14.60
2022-10-31T15:09:59.376Z,15.00
2022-10-31T15:12:27.474Z,14.90
2022-10-31T15:14:54.370Z,15.40
2022-10-31T15:17:21.354Z,15.90
2022-10-31T15:19:48.109Z,15.20
2022-10-31T15:22:18.811Z,15.60
2022-10-31T15:24:45.948Z,15.90
2022-10-31T15:27:18.993Z,15.30
2022-10-31T15:29:56.159Z,14.90
2022-10-31T15:32:24.442Z,15.20
2022-10-31T15:34:52.653Z,16.10
2022-10-31T15:37:20.578Z,14.40
2022-10-31T15:39:47.923Z,15.40
2022-10-31T15:42:20.171Z,14.00
2022-10-31T15:44:49.055Z,13.90
2022-10-31T15:47:20.365Z,15.60
2022-10-31T15:49:52.180Z,14.60
2022-10-31T15:52:37.037Z,14.50
2022-10-31T15:55:05.203Z,14.50
2022-10-31T15:57:32.210Z,14.40
2022-10-31T15:59:59.299Z,13.70
2022-10-31T16:02:27.202Z,14.10
2022-10-31T16:04:58.832Z,14.10
2022-10-31T16:07:25.903Z,14.00
2022-10-31T16:09:59.591Z,13.90
2022-10-31T16:15:20.945Z,13.80
2022-10-31T16:18:01.336Z,13.70
2022-10-31T16:20:52.411Z,13.70
2022-10-31T16:27:12.472Z,13.50
2022-10-31T16:39:38.472Z,13.20
2022-10-31T16:42:05.241Z,14.90
2022-10-31T16:47:26.108Z,13.10
2022-10-31T16:49:56.063Z,13.20
2022-10-31T16:52:22.675Z,13.00
2022-10-31T16:54:49.542Z,12.20
2022-10-31T16:57:18.138Z,14.60
2022-10-31T16:59:46.262Z,12.00
2022-10-31T17:02:16.418Z,11.90
2022-10-31T17:04:43.160Z,12.80
2022-10-31T17:07:09.741Z,12.70
2022-10-31T17:09:36.329Z,12.60
2022-10-31T17:12:03.126Z,12.60
2022-10-31T17:14:29.797Z,12.50
2022-10-31T17:16:59.305Z,12.40
2022-10-31T17:19:25.921Z,12.00
2022-10-31T17:21:52.516Z,11.60
2022-10-31T17:24:19.134Z,12.30
2022-10-31T17:26:47.164Z,12.30
2022-10-31T17:29:14.148Z,12.30
2022-10-31T17:34:23.139Z,12.20
2022-10-31T17:36:53.156Z,12.20
2022-10-31T17:39:20.281Z,12.10
2022-10-31T17:41:49.886Z,13.50
2022-10-31T17:44:16.487Z,11.80
2022-10-31T17:46:43.110Z,13.50
2022-10-31T17:49:11.188Z,13.50
2022-10-31T17:51:37.954Z,11.50
2022-10-31T17:54:06.079Z,13.20
2022-10-31T17:56:32.666Z,11.70
2022-10-31T17:58:59.319Z,12.90
2022-10-31T18:01:26.189Z,12.80
2022-10-31T18:06:51.261Z,11.70
2022-10-31T18:09:18.499Z,11.60
2022-10-31T18:11:45.296Z,12.20
2022-10-31T18:14:11.894Z,10.70
2022-10-31T18:16:38.490Z,13.60
2022-10-31T18:19:06.003Z,13.10
2022-10-31T18:21:32.598Z,13.20
2022-10-31T18:23:59.787Z,12.10
2022-10-31T18:26:27.567Z,13.00
2022-10-31T18:28:54.453Z,10.80
2022-10-31T18:31:21.167Z,12.80
2022-10-31T18:36:17.639Z,13.60
2022-10-31T18:38:47.759Z,13.00
2022-10-31T18:41:14.958Z,11.70
2022-10-31T18:43:41.980Z,12.60
2022-10-31T18:46:10.419Z,13.00
2022-10-31T18:48:37.562Z,12.90
2022-10-31T18:53:37.426Z,11.60
2022-10-31T18:56:08.381Z,12.90
2022-10-31T18:58:35.191Z,11.40
2022-10-31T19:01:05.861Z,12.80
2022-10-31T19:03:32.489Z,11.30
2022-10-31T19:05:59.252Z,11.00
2022-10-31T19:11:35.815Z,11.20
2022-10-31T19:14:02.471Z,11.20
2022-10-31T19:16:29.122Z,12.00
2022-10-31T19:18:56.692Z,12.50
2022-10-31T19:21:23.693Z,10.70
2022-10-31T19:23:51.619Z,12.40
2022-10-31T19:26:18.212Z,11.10
2022-10-31T19:28:44.872Z,10.40
2022-10-31T19:31:11.488Z,12.30
2022-10-31T19:33:38.855Z,12.10
2022-10-31T19:36:10.507Z,12.70
2022-10-31T19:38:38.231Z,11.20
2022-10-31T19:41:06.429Z,11.00
2022-10-31T19:46:00.794Z,11.20
2022-10-31T19:48:27.510Z,10.80
2022-10-31T19:50:59.767Z,12.20
2022-10-31T19:53:26.421Z,11.90
2022-10-31T19:55:53.051Z,12.00
2022-10-31T19:58:19.665Z,12.60
2022-10-31T20:00:46.419Z,10.80
2022-10-31T20:03:13.902Z,12.40
2022-10-31T20:05:42.605Z,12.20
2022-10-31T20:08:13.736Z,10.20
2022-10-31T20:10:40.400Z,12.30
2022-10-31T20:13:07.056Z,12.40
2022-10-31T20:15:34.508Z,12.50
2022-10-31T20:18:01.167Z,10.90
2022-10-31T20:20:27.826Z,12.30
2022-10-31T20:22:54.487Z,10.30
2022-10-31T20:25:21.619Z,11.10
2022-10-31T20:27:48.226Z,10.50
2022-10-31T20:30:15.167Z,10.80
2022-10-31T20:32:44.311Z,10.80
2022-10-31T20:35:14.245Z,10.30
2022-10-31T20:37:40.884Z,10.50
2022-10-31T20:40:07.846Z,10.70
2022-10-31T20:42:34.429Z,10.90
2022-10-31T20:45:01.098Z,10.80
2022-10-31T20:47:27.686Z,10.70
2022-10-31T20:49:54.278Z,10.60
2022-10-31T20:52:20.874Z,10.60
2022-10-31T20:54:47.461Z,10.50
2022-10-31T20:57:14.115Z,10.60
2022-10-31T20:59:40.705Z,10.70
2022-10-31T21:02:08.576Z,10.70
2022-10-31T21:04:35.241Z,10.70
2022-10-31T21:07:01.819Z,10.70
2022-10-31T21:09:28.439Z,11.00
2022-10-31T21:11:55.089Z,10.50
2022-10-31T21:14:21.656Z,10.40
2022-10-31T21:16:48.228Z,10.50
2022-10-31T21:19:14.829Z,10.50
2022-10-31T21:21:41.452Z,10.50
2022-10-31T21:24:10.873Z,11.80
2022-10-31T21:26:38.956Z,10.60
2022-10-31T21:29:06.550Z,11.80
2022-10-31T21:31:34.610Z,11.00
2022-10-31T21:34:01.260Z,10.20
2022-10-31T21:36:27.926Z,11.70
2022-10-31T21:38:55.071Z,10.10
2022-10-31T21:41:22.509Z,9.80
2022-10-31T21:48:44.045Z,10.00
2022-10-31T21:51:12.199Z,10.20
2022-10-31T21:53:57.592Z,9.80
2022-10-31T21:56:24.666Z,9.80
2022-10-31T21:58:51.789Z,9.50
2022-10-31T22:03:45.900Z,9.50
2022-10-31T22:06:13.369Z,9.50
2022-10-31T22:08:40.719Z,9.60
2022-10-31T22:11:08.627Z,9.60
2022-10-31T22:13:35.854Z,9.60
2022-10-31T22:16:03.484Z,9.60
2022-10-31T22:18:30.243Z,9.60
2022-10-31T22:21:03.982Z,9.60
2022-10-31T22:23:31.001Z,9.60
2022-10-31T22:26:02.245Z,9.60
2022-10-31T22:28:29.301Z,9.40
2022-10-31T22:30:55.918Z,9.40
2022-10-31T22:33:22.511Z,9.50
2022-10-31T22:35:49.079Z,9.20
2022-10-31T22:38:15.669Z,9.20
2022-10-31T22:40:42.245Z,9.20
2022-10-31T22:43:08.997Z,9.20
2022-10-31T22:45:35.573Z,9.20
2022-10-31T22:48:02.393Z,9.20
2022-10-31T22:50:29.233Z,9.20
2022-10-31T22:52:55.814Z,9.10
2022-10-31T22:55:22.407Z,9.30
2022-10-31T22:57:48.973Z,9.00
2022-10-31T23:00:15.732Z,9.30
2022-10-31T23:02:42.292Z,9.20
2022-10-31T23:05:09.011Z,9.10
2022-10-31T23:07:35.566Z,9.10
2022-10-31T23:12:47.865Z,9.00
2022-10-31T23:15:14.498Z,8.90
2022-10-31T23:17:41.061Z,9.80
2022-10-31T23:20:07.972Z,8.80
2022-10-31T23:22:34.550Z,9.10
2022-10-31T23:25:01.843Z,9.00
2022-10-31T23:27:28.394Z,8.90
2022-10-31T23:29:59.369Z,8.90
2022-10-31T23:32:27.034Z,9.20
2022-10-31T23:34:54.656Z,8.60
2022-10-31T23:37:22.637Z,9.10
2022-10-31T23:39:49.459Z,8.90
2022-10-31T23:42:16.428Z,9.00
2022-10-31T23:44:43.123Z,8.90
2022-10-31T23:47:09.687Z,8.80
2022-10-31T23:49:36.311Z,9.40
2022-10-31T23:52:03.581Z,8.70
2022-10-31T23:54:30.472Z,8.70
2022-10-31T23:56:58.216Z,8.70
2022-10-31T23:59:25.358Z,8.70
